sensor_id;sensor_type;location;lat;lon;timestamp;temperature;humidity
32877;DHT22;19226;51.600;8.034;2022-11-24T00:01:28;8.20;99.90
32877;DHT22;19226;51.600;8.034;2022-11-24T00:03:56;8.30;99.90
32877;DHT22;19226;51.600;8.034;2022-11-24T00:06:22;8.30;99.90
32877;DHT22;19226;51.600;8.034;2022-11-24T00:08:48;8.30;99.90
32877;DHT22;19226;51.600;8.034;2022-11-24T00:11:19;8.30;99.90
32877;DHT22;19226;51.600;8.034;2022-11-24T00:13:45;8.30;99.90
32877;DHT22;19226;51.600;8.034;2022-11-24T00:16:14;8.30;99.90
32877;DHT22;19226;51.600;8.034;2022-11-24T00:18:41;8.30;99.90
32877;DHT22;19226;51.600;8.034;2022-11-24T00:21:09;8.40;99.90
32877;DHT22;19226;51.600;8.034;2022-11-24T00:23:36;8.40;99.90
32877;DHT22;19226;51.600;8.034;2022-11-24T00:26:03;8.50;99.90
32877;DHT22;19226;51.600;8.034;2022-11-24T00:28:29;8.40;99.90
32877;DHT22;19226;51.600;8.034;2022-11-24T00:30:55;8.50;99.90
32877;DHT22;19226;51.600;8.034;2022-11-24T00:33:22;8.60;99.90
32877;DHT22;19226;51.600;8.034;2022-11-24T00:35:54;8.60;99.90
32877;DHT22;19226;51.600;8.034;2022-11-24T00:38:20;8.70;99.90
32877;DHT22;19226;51.600;8.034;2022-11-24T00:40:46;8.70;99.90
32877;DHT22;19226;51.600;8.034;2022-11-24T00:43:12;8.80;99.90
32877;DHT22;19226;51.600;8.034;2022-11-24T00:45:40;8.80;99.90
32877;DHT22;19226;51.600;8.034;2022-11-24T00:48:06;8.80;99.90
32877;DHT22;19226;51.600;8.034;2022-11-24T00:50:34;8.90;99.90
32877;DHT22;19226;51.600;8.034;2022-11-24T00:53:00;8.90;99.90
32877;DHT22;19226;51.600;8.034;2022-11-24T00:55:27;8.90;99.90
32877;DHT22;19226;51.600;8.034;2022-11-24T00:57:53;9.00;99.90
32877;DHT22;19226;51.600;8.034;2022-11-24T01:00:19;9.00;99.90
32877;DHT22;19226;51.600;8.034;2022-11-24T01:02:46;9.00;99.90
32877;DHT22;19226;51.600;8.034;2022-11-24T01:05:13;9.00;99.90
32877;DHT22;19226;51.600;8.034;2022-11-24T01:10:23;9.10;99.90
32877;DHT22;19226;51.600;8.034;2022-11-24T01:12:50;9.10;99.90
32877;DHT22;19226;51.600;8.034;2022-11-24T01:15:17;9.10;99.90
32877;DHT22;19226;51.600;8.034;2022-11-24T01:20:28;9.00;99.90
32877;DHT22;19226;51.600;8.034;2022-11-24T01:22:54;9.00;99.90
32877;DHT22;19226;51.600;8.034;2022-11-24T01:25:20;9.00;99.90
32877;DHT22;19226;51.600;8.034;2022-11-24T01:30:31;9.00;99.90
32877;DHT22;19226;51.600;8.034;2022-11-24T01:32:57;9.00;99.90
32877;DHT22;19226;51.600;8.034;2022-11-24T01:35:32;9.00;99.90
32877;DHT22;19226;51.600;8.034;2022-11-24T01:37:58;9.00;99.90
32877;DHT22;19226;51.600;8.034;2022-11-24T01:40:24;9.00;99.90
32877;DHT22;19226;51.600;8.034;2022-11-24T01:42:52;9.00;99.90
32877;DHT22;19226;51.600;8.034;2022-11-24T01:45:26;9.00;99.90
32877;DHT22;19226;51.600;8.034;2022-11-24T01:47:53;9.00;99.90
32877;DHT22;19226;51.600;8.034;2022-11-24T01:50:19;9.00;99.90
32877;DHT22;19226;51.600;8.034;2022-11-24T01:52:47;9.00;99.90
32877;DHT22;19226;51.600;8.034;2022-11-24T01:55:15;8.90;99.90
32877;DHT22;19226;51.600;8.034;2022-11-24T01:58:04;8.90;99.90
32877;DHT22;19226;51.600;8.034;2022-11-24T02:00:29;9.00;99.90
32877;DHT22;19226;51.600;8.034;2022-11-24T02:02:56;8.90;99.90
32877;DHT22;19226;51.600;8.034;2022-11-24T02:05:25;8.90;99.90
32877;DHT22;19226;51.600;8.034;2022-11-24T02:07:52;8.90;99.90
32877;DHT22;19226;51.600;8.034;2022-11-24T02:10:21;8.90;99.90
32877;DHT22;19226;51.600;8.034;2022-11-24T02:12:49;8.90;99.90
32877;DHT22;19226;51.600;8.034;2022-11-24T02:15:16;9.00;99.90
32877;DHT22;19226;51.600;8.034;2022-11-24T02:17:42;8.90;99.90
32877;DHT22;19226;51.600;8.034;2022-11-24T02:20:09;9.00;99.90
32877;DHT22;19226;51.600;8.034;2022-11-24T02:22:39;8.90;99.90
32877;DHT22;19226;51.600;8.034;2022-11-24T02:25:14;8.90;99.90
32877;DHT22;19226;51.600;8.034;2022-11-24T02:30:26;8.90;99.90
32877;DHT22;19226;51.600;8.034;2022-11-24T02:32:52;8.90;99.90
32877;DHT22;19226;51.600;8.034;2022-11-24T02:35:18;8.80;99.90
32877;DHT22;19226;51.600;8.034;2022-11-24T02:40:30;8.80;99.90
32877;DHT22;19226;51.600;8.034;2022-11-24T02:43:34;8.80;99.90
32877;DHT22;19226;51.600;8.034;2022-11-24T02:45:52;8.90;99.90
32877;DHT22;19226;51.600;8.034;2022-11-24T02:48:17;8.90;99.90
32877;DHT22;19226;51.600;8.034;2022-11-24T02:50:45;8.80;99.90
32877;DHT22;19226;51.600;8.034;2022-11-24T02:53:10;8.80;99.90
32877;DHT22;19226;51.600;8.034;2022-11-24T02:55:36;8.80;99.90
32877;DHT22;19226;51.600;8.034;2022-11-24T02:58:02;8.80;99.90
32877;DHT22;19226;51.600;8.034;2022-11-24T03:00:28;8.80;99.90
32877;DHT22;19226;51.600;8.034;2022-11-24T03:02:54;8.80;99.90
32877;DHT22;19226;51.600;8.034;2022-11-24T03:05:20;8.80;99.90
32877;DHT22;19226;51.600;8.034;2022-11-24T03:07:46;8.80;99.90
32877;DHT22;19226;51.600;8.034;2022-11-24T03:10:13;8.80;99.90
32877;DHT22;19226;51.600;8.034;2022-11-24T03:12:39;8.80;99.90
32877;DHT22;19226;51.600;8.034;2022-11-24T03:15:06;8.80;99.90
32877;DHT22;19226;51.600;8.034;2022-11-24T03:17:32;8.80;99.90
32877;DHT22;19226;51.600;8.034;2022-11-24T03:19:58;8.80;99.90
32877;DHT22;19226;51.600;8.034;2022-11-24T03:22:26;8.90;99.90
32877;DHT22;19226;51.600;8.034;2022-11-24T03:24:52;8.90;99.90
32877;DHT22;19226;51.600;8.034;2022-11-24T03:27:18;8.90;99.90
32877;DHT22;19226;51.600;8.034;2022-11-24T03:29:44;9.00;99.90
32877;DHT22;19226;51.600;8.034;2022-11-24T03:32:10;9.00;99.90
32877;DHT22;19226;51.600;8.034;2022-11-24T03:34:37;9.00;99.90
32877;DHT22;19226;51.600;8.034;2022-11-24T03:37:03;9.00;99.90
32877;DHT22;19226;51.600;8.034;2022-11-24T03:39:30;9.00;99.90
32877;DHT22;19226;51.600;8.034;2022-11-24T03:41:56;9.00;99.90
32877;DHT22;19226;51.600;8.034;2022-11-24T03:44:22;9.00;99.90
32877;DHT22;19226;51.600;8.034;2022-11-24T03:46:48;9.00;99.90
32877;DHT22;19226;51.600;8.034;2022-11-24T03:49:15;9.00;99.90
32877;DHT22;19226;51.600;8.034;2022-11-24T03:51:41;9.00;99.90
32877;DHT22;19226;51.600;8.034;2022-11-24T03:54:07;9.00;99.90
32877;DHT22;19226;51.600;8.034;2022-11-24T03:56:33;9.10;99.90
32877;DHT22;19226;51.600;8.034;2022-11-24T03:59:00;9.10;99.90
32877;DHT22;19226;51.600;8.034;2022-11-24T04:01:25;9.10;99.90
32877;DHT22;19226;51.600;8.034;2022-11-24T04:03:51;9.10;99.90
32877;DHT22;19226;51.600;8.034;2022-11-24T04:06:17;9.10;99.90
32877;DHT22;19226;51.600;8.034;2022-11-24T04:08:43;9.10;99.90
32877;DHT22;19226;51.600;8.034;2022-11-24T04:11:09;9.10;99.90
32877;DHT22;19226;51.600;8.034;2022-11-24T04:13:55;9.20;99.90
32877;DHT22;19226;51.600;8.034;2022-11-24T04:16:21;9.20;99.90
32877;DHT22;19226;51.600;8.034;2022-11-24T04:18:47;9.20;99.90
32877;DHT22;19226;51.600;8.034;2022-11-24T04:21:14;9.20;99.90
32877;DHT22;19226;51.600;8.034;2022-11-24T04:23:40;9.30;99.90
32877;DHT22;19226;51.600;8.034;2022-11-24T04:26:07;9.30;99.90
32877;DHT22;19226;51.600;8.034;2022-11-24T04:28:33;9.30;99.90
32877;DHT22;19226;51.600;8.034;2022-11-24T04:31:03;9.30;99.90
32877;DHT22;19226;51.600;8.034;2022-11-24T04:33:31;9.30;99.90
32877;DHT22;19226;51.600;8.034;2022-11-24T04:35:57;9.40;99.90
32877;DHT22;19226;51.600;8.034;2022-11-24T04:38:23;9.40;99.90
32877;DHT22;19226;51.600;8.034;2022-11-24T04:40:49;9.40;99.90
32877;DHT22;19226;51.600;8.034;2022-11-24T04:43:15;9.40;99.90
32877;DHT22;19226;51.600;8.034;2022-11-24T04:45:43;9.40;99.90
32877;DHT22;19226;51.600;8.034;2022-11-24T04:48:09;9.40;99.90
32877;DHT22;19226;51.600;8.034;2022-11-24T04:50:35;9.40;99.90
32877;DHT22;19226;51.600;8.034;2022-11-24T04:53:02;9.40;99.90
32877;DHT22;19226;51.600;8.034;2022-11-24T04:55:29;9.40;99.90
32877;DHT22;19226;51.600;8.034;2022-11-24T04:57:56;9.40;99.90
32877;DHT22;19226;51.600;8.034;2022-11-24T05:00:22;9.40;99.90
32877;DHT22;19226;51.600;8.034;2022-11-24T05:02:48;9.40;99.90
32877;DHT22;19226;51.600;8.034;2022-11-24T05:05:14;9.40;99.90
32877;DHT22;19226;51.600;8.034;2022-11-24T05:07:41;9.40;99.90
32877;DHT22;19226;51.600;8.034;2022-11-24T05:10:07;9.40;99.90
32877;DHT22;19226;51.600;8.034;2022-11-24T05:12:55;9.40;99.90
32877;DHT22;19226;51.600;8.034;2022-11-24T05:15:22;9.50;99.90
32877;DHT22;19226;51.600;8.034;2022-11-24T05:17:48;9.40;99.90
32877;DHT22;19226;51.600;8.034;2022-11-24T05:20:14;9.40;99.90
32877;DHT22;19226;51.600;8.034;2022-11-24T05:22:39;9.40;99.90
32877;DHT22;19226;51.600;8.034;2022-11-24T05:25:09;9.40;99.90
32877;DHT22;19226;51.600;8.034;2022-11-24T05:27:35;9.50;99.90
32877;DHT22;19226;51.600;8.034;2022-11-24T05:30:01;9.50;99.90
32877;DHT22;19226;51.600;8.034;2022-11-24T05:32:27;9.40;99.90
32877;DHT22;19226;51.600;8.034;2022-11-24T05:34:53;9.40;99.90
32877;DHT22;19226;51.600;8.034;2022-11-24T05:37:19;9.50;99.90
32877;DHT22;19226;51.600;8.034;2022-11-24T05:39:46;9.50;99.90
32877;DHT22;19226;51.600;8.034;2022-11-24T05:42:12;9.40;99.90
32877;DHT22;19226;51.600;8.034;2022-11-24T05:44:56;9.40;99.90
32877;DHT22;19226;51.600;8.034;2022-11-24T05:47:22;9.50;99.90
32877;DHT22;19226;51.600;8.034;2022-11-24T05:49:48;9.40;99.90
32877;DHT22;19226;51.600;8.034;2022-11-24T05:52:16;9.40;99.90
32877;DHT22;19226;51.600;8.034;2022-11-24T05:54:42;9.40;99.90
32877;DHT22;19226;51.600;8.034;2022-11-24T05:57:09;9.40;99.90
32877;DHT22;19226;51.600;8.034;2022-11-24T05:59:35;9.40;99.90
32877;DHT22;19226;51.600;8.034;2022-11-24T06:02:02;9.40;99.90
32877;DHT22;19226;51.600;8.034;2022-11-24T06:04:28;9.30;99.90
32877;DHT22;19226;51.600;8.034;2022-11-24T06:06:54;9.40;99.90
32877;DHT22;19226;51.600;8.034;2022-11-24T06:09:20;9.30;99.90
32877;DHT22;19226;51.600;8.034;2022-11-24T06:11:47;9.30;99.90
32877;DHT22;19226;51.600;8.034;2022-11-24T06:16:59;9.30;99.90
32877;DHT22;19226;51.600;8.034;2022-11-24T06:19:25;9.30;99.90
32877;DHT22;19226;51.600;8.034;2022-11-24T06:21:51;9.30;99.90
32877;DHT22;19226;51.600;8.034;2022-11-24T06:24:21;9.30;99.90
32877;DHT22;19226;51.600;8.034;2022-11-24T06:26:50;9.20;99.90
32877;DHT22;19226;51.600;8.034;2022-11-24T06:29:16;9.20;99.90
32877;DHT22;19226;51.600;8.034;2022-11-24T06:31:42;9.30;99.90
32877;DHT22;19226;51.600;8.034;2022-11-24T06:34:08;9.20;99.90
32877;DHT22;19226;51.600;8.034;2022-11-24T06:36:36;9.20;99.90
32877;DHT22;19226;51.600;8.034;2022-11-24T06:39:03;9.20;99.90
32877;DHT22;19226;51.600;8.034;2022-11-24T06:41:29;9.30;99.90
32877;DHT22;19226;51.600;8.034;2022-11-24T06:44:00;9.20;99.90
32877;DHT22;19226;51.600;8.034;2022-11-24T06:46:26;9.20;99.90
32877;DHT22;19226;51.600;8.034;2022-11-24T06:51:46;9.20;99.90
32877;DHT22;19226;51.600;8.034;2022-11-24T06:54:13;9.20;99.90
32877;DHT22;19226;51.600;8.034;2022-11-24T06:56:39;9.20;99.90
32877;DHT22;19226;51.600;8.034;2022-11-24T06:59:06;9.20;99.90
32877;DHT22;19226;51.600;8.034;2022-11-24T07:01:38;9.20;99.90
32877;DHT22;19226;51.600;8.034;2022-11-24T07:04:04;9.20;99.90
32877;DHT22;19226;51.600;8.034;2022-11-24T07:06:30;9.20;99.90
32877;DHT22;19226;51.600;8.034;2022-11-24T07:08:56;9.20;99.90
32877;DHT22;19226;51.600;8.034;2022-11-24T07:11:22;9.20;99.90
32877;DHT22;19226;51.600;8.034;2022-11-24T07:13:50;9.20;99.90
32877;DHT22;19226;51.600;8.034;2022-11-24T07:16:20;9.20;99.90
32877;DHT22;19226;51.600;8.034;2022-11-24T07:18:46;9.20;99.90
32877;DHT22;19226;51.600;8.034;2022-11-24T07:21:12;9.20;99.90
32877;DHT22;19226;51.600;8.034;2022-11-24T07:23:39;9.20;99.90
32877;DHT22;19226;51.600;8.034;2022-11-24T07:26:06;9.20;99.90
32877;DHT22;19226;51.600;8.034;2022-11-24T07:28:33;9.20;99.90
32877;DHT22;19226;51.600;8.034;2022-11-24T07:31:07;9.20;99.90
32877;DHT22;19226;51.600;8.034;2022-11-24T07:33:34;9.20;99.90
32877;DHT22;19226;51.600;8.034;2022-11-24T07:36:00;9.20;99.90
32877;DHT22;19226;51.600;8.034;2022-11-24T07:38:28;9.20;99.90
32877;DHT22;19226;51.600;8.034;2022-11-24T07:40:59;9.20;99.90
32877;DHT22;19226;51.600;8.034;2022-11-24T07:43:27;9.20;99.90
32877;DHT22;19226;51.600;8.034;2022-11-24T07:45:53;9.20;99.90
32877;DHT22;19226;51.600;8.034;2022-11-24T07:48:21;9.20;99.90
32877;DHT22;19226;51.600;8.034;2022-11-24T07:50:47;9.20;99.90
32877;DHT22;19226;51.600;8.034;2022-11-24T07:53:15;9.20;99.90
32877;DHT22;19226;51.600;8.034;2022-11-24T07:55:41;9.20;99.90
32877;DHT22;19226;51.600;8.034;2022-11-24T07:58:08;9.30;99.90
32877;DHT22;19226;51.600;8.034;2022-11-24T08:00:34;9.20;99.90
32877;DHT22;19226;51.600;8.034;2022-11-24T08:03:01;9.30;99.90
32877;DHT22;19226;51.600;8.034;2022-11-24T08:05:27;9.30;99.90
32877;DHT22;19226;51.600;8.034;2022-11-24T08:07:53;9.30;99.90
32877;DHT22;19226;51.600;8.034;2022-11-24T08:10:20;9.30;99.90
32877;DHT22;19226;51.600;8.034;2022-11-24T08:12:46;9.40;99.90
32877;DHT22;19226;51.600;8.034;2022-11-24T08:15:15;9.30;99.90
32877;DHT22;19226;51.600;8.034;2022-11-24T08:17:41;9.40;99.90
32877;DHT22;19226;51.600;8.034;2022-11-24T08:20:07;9.40;99.90
32877;DHT22;19226;51.600;8.034;2022-11-24T08:22:33;9.50;99.90
32877;DHT22;19226;51.600;8.034;2022-11-24T08:24:59;9.50;99.90
32877;DHT22;19226;51.600;8.034;2022-11-24T08:27:25;9.50;99.90
32877;DHT22;19226;51.600;8.034;2022-11-24T08:29:51;9.50;99.90
32877;DHT22;19226;51.600;8.034;2022-11-24T08:32:17;9.60;99.90
32877;DHT22;19226;51.600;8.034;2022-11-24T08:34:43;9.60;99.90
32877;DHT22;19226;51.600;8.034;2022-11-24T08:37:11;9.70;99.90
32877;DHT22;19226;51.600;8.034;2022-11-24T08:39:37;9.70;99.90
32877;DHT22;19226;51.600;8.034;2022-11-24T08:42:04;9.70;99.90
32877;DHT22;19226;51.600;8.034;2022-11-24T08:44:29;9.70;99.90
32877;DHT22;19226;51.600;8.034;2022-11-24T08:46:57;9.70;99.90
32877;DHT22;19226;51.600;8.034;2022-11-24T08:49:23;9.70;99.90
32877;DHT22;19226;51.600;8.034;2022-11-24T08:54:37;9.70;99.90
32877;DHT22;19226;51.600;8.034;2022-11-24T08:57:03;9.70;99.90
32877;DHT22;19226;51.600;8.034;2022-11-24T08:59:29;9.80;99.90
32877;DHT22;19226;51.600;8.034;2022-11-24T09:01:58;9.80;99.90
32877;DHT22;19226;51.600;8.034;2022-11-24T09:04:24;9.70;99.90
32877;DHT22;19226;51.600;8.034;2022-11-24T09:06:50;9.80;99.90
32877;DHT22;19226;51.600;8.034;2022-11-24T09:09:19;9.80;99.90
32877;DHT22;19226;51.600;8.034;2022-11-24T09:11:44;9.80;99.90
32877;DHT22;19226;51.600;8.034;2022-11-24T09:14:10;9.80;99.90
32877;DHT22;19226;51.600;8.034;2022-11-24T09:16:38;9.80;99.90
32877;DHT22;19226;51.600;8.034;2022-11-24T09:21:51;9.80;99.90
32877;DHT22;19226;51.600;8.034;2022-11-24T09:24:17;9.80;99.90
32877;DHT22;19226;51.600;8.034;2022-11-24T09:26:43;9.80;99.90
32877;DHT22;19226;51.600;8.034;2022-11-24T09:29:10;9.80;99.90
32877;DHT22;19226;51.600;8.034;2022-11-24T09:31:36;9.70;99.90
32877;DHT22;19226;51.600;8.034;2022-11-24T09:34:03;9.70;99.90
32877;DHT22;19226;51.600;8.034;2022-11-24T09:36:30;9.70;99.90
32877;DHT22;19226;51.600;8.034;2022-11-24T09:38:56;9.70;99.90
32877;DHT22;19226;51.600;8.034;2022-11-24T09:48:49;9.80;99.90
32877;DHT22;19226;51.600;8.034;2022-11-24T09:51:15;9.80;99.90
32877;DHT22;19226;51.600;8.034;2022-11-24T09:53:52;9.80;99.90
32877;DHT22;19226;51.600;8.034;2022-11-24T09:56:22;9.90;99.90
32877;DHT22;19226;51.600;8.034;2022-11-24T10:04:08;9.90;99.90
32877;DHT22;19226;51.600;8.034;2022-11-24T10:06:39;9.90;99.90
32877;DHT22;19226;51.600;8.034;2022-11-24T10:11:45;9.90;99.90
32877;DHT22;19226;51.600;8.034;2022-11-24T10:14:30;9.90;99.90
32877;DHT22;19226;51.600;8.034;2022-11-24T10:17:15;9.90;99.90
32877;DHT22;19226;51.600;8.034;2022-11-24T10:19:52;10.00;99.90
32877;DHT22;19226;51.600;8.034;2022-11-24T10:27:53;9.90;99.90
32877;DHT22;19226;51.600;8.034;2022-11-24T10:30:21;9.90;99.90
32877;DHT22;19226;51.600;8.034;2022-11-24T10:33:34;9.90;99.90
32877;DHT22;19226;51.600;8.034;2022-11-24T10:38:09;9.90;99.90
32877;DHT22;19226;51.600;8.034;2022-11-24T10:40:43;9.90;99.90
32877;DHT22;19226;51.600;8.034;2022-11-24T10:43:10;10.00;99.90
32877;DHT22;19226;51.600;8.034;2022-11-24T10:45:39;10.00;99.90
32877;DHT22;19226;51.600;8.034;2022-11-24T10:48:06;10.00;99.90
32877;DHT22;19226;51.600;8.034;2022-11-24T10:50:35;10.00;99.90
32877;DHT22;19226;51.600;8.034;2022-11-24T10:53:16;10.00;99.90
32877;DHT22;19226;51.600;8.034;2022-11-24T11:01:27;10.00;99.90
32877;DHT22;19226;51.600;8.034;2022-11-24T11:03:53;10.00;99.90
32877;DHT22;19226;51.600;8.034;2022-11-24T11:08:47;10.00;99.90
32877;DHT22;19226;51.600;8.034;2022-11-24T11:13:52;10.00;99.90
32877;DHT22;19226;51.600;8.034;2022-11-24T11:16:25;9.90;99.90
32877;DHT22;19226;51.600;8.034;2022-11-24T11:18:52;9.90;99.90
32877;DHT22;19226;51.600;8.034;2022-11-24T11:21:30;9.90;99.90
32877;DHT22;19226;51.600;8.034;2022-11-24T11:23:57;9.90;99.90
32877;DHT22;19226;51.600;8.034;2022-11-24T11:31:37;10.00;99.90
32877;DHT22;19226;51.600;8.034;2022-11-24T11:36:30;10.00;99.90
32877;DHT22;19226;51.600;8.034;2022-11-24T11:38:57;10.00;99.90
32877;DHT22;19226;51.600;8.034;2022-11-24T11:41:27;10.00;99.90
32877;DHT22;19226;51.600;8.034;2022-11-24T11:43:57;10.00;99.90
32877;DHT22;19226;51.600;8.034;2022-11-24T11:46:27;10.10;99.90
32877;DHT22;19226;51.600;8.034;2022-11-24T11:48:55;10.10;99.90
32877;DHT22;19226;51.600;8.034;2022-11-24T11:56:32;10.20;99.90
32877;DHT22;19226;51.600;8.034;2022-11-24T12:01:37;10.30;99.90
32877;DHT22;19226;51.600;8.034;2022-11-24T12:17:31;10.60;99.90
32877;DHT22;19226;51.600;8.034;2022-11-24T12:20:06;10.70;99.90
32877;DHT22;19226;51.600;8.034;2022-11-24T12:22:45;10.70;99.90
32877;DHT22;19226;51.600;8.034;2022-11-24T12:30:19;10.80;99.90
32877;DHT22;19226;51.600;8.034;2022-11-24T12:38:14;10.90;99.90
32877;DHT22;19226;51.600;8.034;2022-11-24T12:45:52;11.10;99.90
32877;DHT22;19226;51.600;8.034;2022-11-24T12:51:16;11.40;99.90
32877;DHT22;19226;51.600;8.034;2022-11-24T12:53:42;11.40;99.90
32877;DHT22;19226;51.600;8.034;2022-11-24T12:56:11;11.50;99.90
32877;DHT22;19226;51.600;8.034;2022-11-24T12:58:48;11.60;99.90
32877;DHT22;19226;51.600;8.034;2022-11-24T13:01:22;11.70;99.90
32877;DHT22;19226;51.600;8.034;2022-11-24T13:03:59;11.70;99.90
32877;DHT22;19226;51.600;8.034;2022-11-24T13:09:07;11.90;99.90
32877;DHT22;19226;51.600;8.034;2022-11-24T13:11:45;12.00;99.90
32877;DHT22;19226;51.600;8.034;2022-11-24T13:14:21;12.00;99.90
32877;DHT22;19226;51.600;8.034;2022-11-24T13:16:51;12.10;99.90
32877;DHT22;19226;51.600;8.034;2022-11-24T13:19:24;12.10;99.90
32877;DHT22;19226;51.600;8.034;2022-11-24T13:24:32;12.30;99.90
32877;DHT22;19226;51.600;8.034;2022-11-24T13:29:49;12.40;99.90
32877;DHT22;19226;51.600;8.034;2022-11-24T13:36:27;12.60;99.90
32877;DHT22;19226;51.600;8.034;2022-11-24T13:39:17;12.80;99.90
32877;DHT22;19226;51.600;8.034;2022-11-24T13:42:27;12.80;99.90
32877;DHT22;19226;51.600;8.034;2022-11-24T13:51:23;12.90;99.90
32877;DHT22;19226;51.600;8.034;2022-11-24T13:53:50;13.00;99.90
32877;DHT22;19226;51.600;8.034;2022-11-24T13:58:47;13.10;99.90
32877;DHT22;19226;51.600;8.034;2022-11-24T14:15:39;13.00;99.90
32877;DHT22;19226;51.600;8.034;2022-11-24T14:18:15;13.00;99.90
32877;DHT22;19226;51.600;8.034;2022-11-24T14:20:41;12.90;99.90
32877;DHT22;19226;51.600;8.034;2022-11-24T14:23:08;12.90;99.90
32877;DHT22;19226;51.600;8.034;2022-11-24T14:25:34;12.80;99.90
32877;DHT22;19226;51.600;8.034;2022-11-24T14:31:12;12.60;99.90
32877;DHT22;19226;51.600;8.034;2022-11-24T14:34:01;12.50;99.90
32877;DHT22;19226;51.600;8.034;2022-11-24T14:37:16;12.50;99.90
32877;DHT22;19226;51.600;8.034;2022-11-24T14:40:33;12.40;99.90
32877;DHT22;19226;51.600;8.034;2022-11-24T14:42:52;12.30;99.90
32877;DHT22;19226;51.600;8.034;2022-11-24T14:45:19;12.20;99.90
32877;DHT22;19226;51.600;8.034;2022-11-24T14:47:45;12.20;99.90
32877;DHT22;19226;51.600;8.034;2022-11-24T14:52:57;12.10;99.90
32877;DHT22;19226;51.600;8.034;2022-11-24T14:55:29;12.00;99.90
32877;DHT22;19226;51.600;8.034;2022-11-24T14:57:56;12.00;99.90
32877;DHT22;19226;51.600;8.034;2022-11-24T15:00:29;12.00;99.90
32877;DHT22;19226;51.600;8.034;2022-11-24T15:08:23;12.00;99.90
32877;DHT22;19226;51.600;8.034;2022-11-24T15:11:01;11.90;99.90
32877;DHT22;19226;51.600;8.034;2022-11-24T15:13:28;11.80;99.90
32877;DHT22;19226;51.600;8.034;2022-11-24T15:16:00;11.80;99.90
32877;DHT22;19226;51.600;8.034;2022-11-24T15:20:55;11.70;99.90
32877;DHT22;19226;51.600;8.034;2022-11-24T15:23:31;11.60;99.90
32877;DHT22;19226;51.600;8.034;2022-11-24T15:28:26;11.50;99.90
32877;DHT22;19226;51.600;8.034;2022-11-24T15:31:08;11.40;99.90
32877;DHT22;19226;51.600;8.034;2022-11-24T15:33:35;11.40;99.90
32877;DHT22;19226;51.600;8.034;2022-11-24T15:36:02;11.30;99.90
32877;DHT22;19226;51.600;8.034;2022-11-24T15:38:28;11.20;99.90
32877;DHT22;19226;51.600;8.034;2022-11-24T15:40:58;11.20;99.90
32877;DHT22;19226;51.600;8.034;2022-11-24T15:43:28;11.10;99.90
32877;DHT22;19226;51.600;8.034;2022-11-24T15:48:41;10.90;99.90
32877;DHT22;19226;51.600;8.034;2022-11-24T15:51:10;10.70;99.90
32877;DHT22;19226;51.600;8.034;2022-11-24T15:53:53;10.70;99.90
32877;DHT22;19226;51.600;8.034;2022-11-24T15:59:16;10.50;99.90
32877;DHT22;19226;51.600;8.034;2022-11-24T16:02:21;10.50;99.90
32877;DHT22;19226;51.600;8.034;2022-11-24T16:04:47;10.30;99.90
32877;DHT22;19226;51.600;8.034;2022-11-24T16:10:02;10.10;99.90
32877;DHT22;19226;51.600;8.034;2022-11-24T16:12:47;10.00;99.90
32877;DHT22;19226;51.600;8.034;2022-11-24T16:15:13;10.00;99.90
32877;DHT22;19226;51.600;8.034;2022-11-24T16:21:11;9.80;99.90
32877;DHT22;19226;51.600;8.034;2022-11-24T16:23:46;9.70;99.90
32877;DHT22;19226;51.600;8.034;2022-11-24T16:29:09;9.60;99.90
32877;DHT22;19226;51.600;8.034;2022-11-24T16:31:52;9.50;99.90
32877;DHT22;19226;51.600;8.034;2022-11-24T16:34:22;9.40;99.90
32877;DHT22;19226;51.600;8.034;2022-11-24T16:36:48;9.40;99.90
32877;DHT22;19226;51.600;8.034;2022-11-24T16:52:33;9.20;99.90
32877;DHT22;19226;51.600;8.034;2022-11-24T16:55:10;9.20;99.90
32877;DHT22;19226;51.600;8.034;2022-11-24T17:01:45;9.10;99.90
32877;DHT22;19226;51.600;8.034;2022-11-24T17:04:17;9.10;99.90
32877;DHT22;19226;51.600;8.034;2022-11-24T17:10:22;8.90;99.90
32877;DHT22;19226;51.600;8.034;2022-11-24T17:13:30;8.80;99.90
32877;DHT22;19226;51.600;8.034;2022-11-24T17:16:35;8.80;99.90
32877;DHT22;19226;51.600;8.034;2022-11-24T17:19:30;8.70;99.90
32877;DHT22;19226;51.600;8.034;2022-11-24T17:22:14;8.70;99.90
32877;DHT22;19226;51.600;8.034;2022-11-24T17:24:45;8.60;99.90
32877;DHT22;19226;51.600;8.034;2022-11-24T17:27:13;8.50;99.90
32877;DHT22;19226;51.600;8.034;2022-11-24T17:46:33;8.40;99.90
32877;DHT22;19226;51.600;8.034;2022-11-24T17:52:19;8.30;99.90
32877;DHT22;19226;51.600;8.034;2022-11-24T17:57:20;8.30;99.90
32877;DHT22;19226;51.600;8.034;2022-11-24T17:59:46;8.30;99.90
32877;DHT22;19226;51.600;8.034;2022-11-24T18:02:12;8.30;99.90
32877;DHT22;19226;51.600;8.034;2022-11-24T18:04:39;8.30;99.90
32877;DHT22;19226;51.600;8.034;2022-11-24T18:07:05;8.20;99.90
32877;DHT22;19226;51.600;8.034;2022-11-24T18:09:40;8.30;99.90
32877;DHT22;19226;51.600;8.034;2022-11-24T18:12:07;8.20;99.90
32877;DHT22;19226;51.600;8.034;2022-11-24T18:17:17;8.20;99.90
32877;DHT22;19226;51.600;8.034;2022-11-24T18:19:44;8.20;99.90
32877;DHT22;19226;51.600;8.034;2022-11-24T18:22:12;8.10;99.90
32877;DHT22;19226;51.600;8.034;2022-11-24T18:24:41;8.10;99.90
32877;DHT22;19226;51.600;8.034;2022-11-24T18:27:10;8.10;99.90
32877;DHT22;19226;51.600;8.034;2022-11-24T18:32:39;8.00;99.90
32877;DHT22;19226;51.600;8.034;2022-11-24T18:38:12;8.00;99.90
32877;DHT22;19226;51.600;8.034;2022-11-24T18:40:39;8.00;99.90
32877;DHT22;19226;51.600;8.034;2022-11-24T18:43:06;8.00;99.90
32877;DHT22;19226;51.600;8.034;2022-11-24T18:45:32;8.10;99.90
32877;DHT22;19226;51.600;8.034;2022-11-24T18:50:29;8.10;99.90
32877;DHT22;19226;51.600;8.034;2022-11-24T18:53:05;8.00;99.90
32877;DHT22;19226;51.600;8.034;2022-11-24T18:55:31;8.10;99.90
32877;DHT22;19226;51.600;8.034;2022-11-24T19:01:30;8.10;99.90
32877;DHT22;19226;51.600;8.034;2022-11-24T19:03:57;8.10;99.90
32877;DHT22;19226;51.600;8.034;2022-11-24T19:06:28;8.10;99.90
32877;DHT22;19226;51.600;8.034;2022-11-24T19:09:02;8.00;99.90
32877;DHT22;19226;51.600;8.034;2022-11-24T19:11:30;8.00;99.90
32877;DHT22;19226;51.600;8.034;2022-11-24T19:14:00;8.00;99.90
32877;DHT22;19226;51.600;8.034;2022-11-24T19:16:27;8.00;99.90
32877;DHT22;19226;51.600;8.034;2022-11-24T19:18:56;8.00;99.90
32877;DHT22;19226;51.600;8.034;2022-11-24T19:21:31;8.00;99.90
32877;DHT22;19226;51.600;8.034;2022-11-24T19:23:57;8.00;99.90
32877;DHT22;19226;51.600;8.034;2022-11-24T19:26:27;8.00;99.90
32877;DHT22;19226;51.600;8.034;2022-11-24T19:28:53;8.00;99.90
32877;DHT22;19226;51.600;8.034;2022-11-24T19:38:14;8.00;99.90
32877;DHT22;19226;51.600;8.034;2022-11-24T19:47:49;8.00;99.90
32877;DHT22;19226;51.600;8.034;2022-11-24T19:56:55;8.00;99.90
32877;DHT22;19226;51.600;8.034;2022-11-24T20:02:16;8.00;99.90
32877;DHT22;19226;51.600;8.034;2022-11-24T20:04:48;8.00;99.90
32877;DHT22;19226;51.600;8.034;2022-11-24T20:07:13;8.00;99.90
32877;DHT22;19226;51.600;8.034;2022-11-24T20:09:41;8.00;99.90